Waldport, OR

11:01 PM PDT on July 25, 2016 (GMT -0700)
Lake Side | | Change Station

Elev 56 ft 44.41 °N, 124.03 °W | Updated 0 second ago

Overcast
Overcast
62.2 °F
Feels Like 62.2 °F
N
1.8
Wind Variable Wind from WNW
Gusts 2.5 mph

Today
High -- | Low -- °F
--% Chance of Precip.
Yesterday
High -- | Low -- °F
Precip. -- in
Pressure 30.19 in
Visibility 3.0 miles
Clouds Mostly Cloudy 400 ft
Overcast 700 ft
Dew Point 59 °F
Humidity 90%
Rainfall 0.00 in
Snow Depth Not available.
5:56 AM 8:48 PM
Waning Gibbous, 58% visible
METAR KONP 260555Z AUTO 00000KT 3SM BR BKN004 OVC007 14/13 A3019 RMK AO2
Pressure 30.19 in
Visibility 3.0 miles
Clouds Mostly Cloudy 400 ft
Overcast 700 ft
Dew Point 59 °F
Humidity 90%
Rainfall 0.00 in
Snow Depth Not available.
5:56 AM 8:48 PM
Waning Gibbous, 58% visible
METAR KONP 260555Z AUTO 00000KT 3SM BR BKN004 OVC007 14/13 A3019 RMK AO2

10-Day Weather Forecast

Almanac

Astronomy

Jul. 25, 2016 Rise Set
Actual Time
Civil Twilight
Nautical Twilight
Astronomical Twilight
Moon
Length of Visible Light
Length of Day
Tomorrow will be .
, % of the Moon is Illuminated

Today's Extremes

State Highs State Lows

Community

WunderPhotos

Upload Photos

1,927,547 photos uploaded!

WunderBlog® & News

Nearby

Air Quality

  Air Quality AQ Index Pollutant
Not available.

Snow Depth

Station Depth Elevation

Earthquake Activity

City Distance Mag. Time & Date
Minimum magnitude displayed is 2.5.

Coastal Water Temperatures

Place Temperature

Stations

Nearby Weather Stations

Station Location Temp. Windchill Dew Point Humidity Wind Precip. Elev Updated Type
                   

Watches & Warnings

There are currently no watches in effect.